Time;durP1;ratioP1;P1;durP2;ratioP2;P2;SDS_P1;SDS_P2;PMS_P1;PMS_P2;Temp;Humidity;BMP_temperature;BMP_pressure;BME280_temperature;BME280_humidity;BME280_pressure;Samples;Min_cycle;Max_cycle;Signal;HPM_P1;HPM_P2
2021/09/05 00:01:51;;;;;;;4.20;3.00;;;;;;;;;;5048224;28;20197;-86
2021/09/05 00:04:17;;;;;;;2.70;2.47;;;;;;;;;;5046593;28;20431;-85
2021/09/05 00:06:43;;;;;;;3.40;2.90;;;;;;;;;;5058607;28;20190;-87
2021/09/05 00:09:09;;;;;;;3.73;2.50;;;;;;;;;;5048860;28;20424;-86
2021/09/05 00:11:34;;;;;;;5.80;3.25;;;;;;;;;;5046157;28;20444;-87
2021/09/05 00:14:01;;;;;;;5.70;3.70;;;;;;;;;;5051572;28;20209;-87
2021/09/05 00:16:30;;;;;;;3.50;2.88;;;;;;;;;;5058052;28;20428;-86
2021/09/05 00:18:56;;;;;;;8.75;3.53;;;;;;;;;;5045856;28;20186;-85
2021/09/05 00:21:25;;;;;;;5.20;4.00;;;;;;;;;;5045026;28;20245;-86
2021/09/05 00:23:51;;;;;;;6.35;2.83;;;;;;;;;;5048850;28;20181;-87
2021/09/05 00:26:34;;;;;;;4.10;3.30;;;;;;;;;;5047108;28;20400;-86
2021/09/05 00:29:03;;;;;;;4.05;3.17;;;;;;;;;;5046759;28;20201;-87
2021/09/05 00:31:29;;;;;;;7.35;3.08;;;;;;;;;;5047247;28;20235;-87
2021/09/05 00:33:58;;;;;;;5.88;3.75;;;;;;;;;;5045061;28;20213;-86
2021/09/05 00:36:25;;;;;;;6.03;3.88;;;;;;;;;;5060769;28;20205;-86
2021/09/05 00:38:51;;;;;;;4.93;3.50;;;;;;;;;;5061025;28;20228;-87
2021/09/05 00:41:17;;;;;;;4.93;3.97;;;;;;;;;;5050282;28;20641;-87
2021/09/05 00:44:12;;;;;;;5.17;3.67;;;;;;;;;;5051416;28;20523;-87
2021/09/05 00:46:39;;;;;;;5.40;3.20;;;;;;;;;;5049756;28;20442;-87
2021/09/05 00:49:05;;;;;;;5.78;3.70;;;;;;;;;;5045727;28;20194;-86
2021/09/05 00:51:34;;;;;;;4.63;3.60;;;;;;;;;;5043218;28;20523;-86
2021/09/05 00:54:01;;;;;;;6.43;4.07;;;;;;;;;;5048470;28;20210;-87
2021/09/05 00:56:28;;;;;;;5.43;3.63;;;;;;;;;;5045942;28;20257;-87
2021/09/05 00:58:56;;;;;;;3.88;3.47;;;;;;;;;;5047060;28;20185;-87
2021/09/05 01:01:22;;;;;;;5.18;3.50;;;;;;;;;;5043093;28;20197;-87
2021/09/05 01:03:48;;;;;;;5.55;3.60;;;;;;;;;;5057462;28;20209;-87
2021/09/05 01:06:15;;;;;;;4.70;3.80;;;;;;;;;;5046830;28;20174;-86
2021/09/05 01:08:41;;;;;;;6.38;4.28;;;;;;;;;;5054818;28;20181;-87
2021/09/05 01:11:07;;;;;;;4.10;3.58;;;;;;;;;;5051048;28;20208;-87
2021/09/05 01:13:34;;;;;;;4.40;3.73;;;;;;;;;;5044561;28;20225;-87
2021/09/05 01:16:00;;;;;;;5.07;4.57;;;;;;;;;;5042125;28;20891;-87
2021/09/05 01:18:26;;;;;;;3.30;3.03;;;;;;;;;;5060914;28;20196;-87
2021/09/05 01:20:52;;;;;;;5.63;4.53;;;;;;;;;;5046943;28;20968;-85
2021/09/05 01:23:18;;;;;;;8.07;3.70;;;;;;;;;;5045032;28;20196;-87
2021/09/05 01:25:44;;;;;;;5.40;3.60;;;;;;;;;;5047294;28;20437;-85
2021/09/05 01:28:10;;;;;;;5.88;4.03;;;;;;;;;;5045241;28;20457;-86
2021/09/05 01:30:36;;;;;;;6.38;4.05;;;;;;;;;;5041406;28;20258;-87
2021/09/05 01:33:02;;;;;;;5.03;4.30;;;;;;;;;;5058007;28;20712;-86
2021/09/05 01:35:28;;;;;;;6.20;4.03;;;;;;;;;;5048382;28;20186;-87
2021/09/05 01:37:54;;;;;;;4.90;3.77;;;;;;;;;;5046872;28;20537;-86
2021/09/05 01:40:20;;;;;;;7.63;4.37;;;;;;;;;;5046723;28;20437;-86
2021/09/05 01:42:46;;;;;;;4.43;3.75;;;;;;;;;;5040243;28;20428;-86
2021/09/05 01:45:12;;;;;;;5.33;3.80;;;;;;;;;;5047673;28;20198;-85
2021/09/05 01:47:38;;;;;;;3.90;3.50;;;;;;;;;;5046757;28;20440;-87
2021/09/05 01:50:05;;;;;;;4.27;3.80;;;;;;;;;;5048074;28;20460;-87
2021/09/05 01:52:31;;;;;;;4.53;3.70;;;;;;;;;;5055658;28;20507;-87
2021/09/05 01:54:56;;;;;;;6.77;4.17;;;;;;;;;;5043900;28;20210;-86
2021/09/05 01:57:22;;;;;;;6.73;4.00;;;;;;;;;;5044620;28;20417;-87
2021/09/05 01:59:49;;;;;;;5.73;3.43;;;;;;;;;;5064285;28;20450;-86
2021/09/05 02:02:14;;;;;;;6.03;3.45;;;;;;;;;;5061622;28;20440;-87
2021/09/05 02:04:40;;;;;;;3.83;3.50;;;;;;;;;;5058255;28;20186;-87
2021/09/05 02:07:06;;;;;;;8.73;4.17;;;;;;;;;;5048778;28;20461;-87
2021/09/05 02:09:32;;;;;;;8.73;4.60;;;;;;;;;;5047538;28;20440;-86
2021/09/05 02:11:58;;;;;;;4.93;4.23;;;;;;;;;;5051058;28;20515;-87
2021/09/05 02:14:24;;;;;;;4.17;3.77;;;;;;;;;;5050046;28;20964;-86
2021/09/05 02:16:50;;;;;;;5.27;3.70;;;;;;;;;;5048695;28;20436;-87
2021/09/05 02:19:16;;;;;;;8.00;4.53;;;;;;;;;;5050626;28;20423;-86
2021/09/05 02:21:42;;;;;;;8.07;3.93;;;;;;;;;;5044744;28;20465;-87
2021/09/05 02:24:08;;;;;;;5.37;4.00;;;;;;;;;;5050410;28;20431;-85
2021/09/05 02:26:34;;;;;;;4.15;3.42;;;;;;;;;;5050665;28;20447;-86
2021/09/05 02:29:00;;;;;;;6.40;5.00;;;;;;;;;;5049964;28;20202;-86
2021/09/05 02:31:26;;;;;;;5.30;3.90;;;;;;;;;;5047017;28;20491;-87
2021/09/05 02:33:52;;;;;;;4.30;3.88;;;;;;;;;;5058525;28;20461;-88
2021/09/05 02:36:18;;;;;;;6.00;4.10;;;;;;;;;;5050133;28;20193;-86
2021/09/05 02:38:44;;;;;;;6.38;4.18;;;;;;;;;;5049260;28;20418;-87
2021/09/05 02:41:10;;;;;;;7.38;4.53;;;;;;;;;;5050059;28;20195;-87
2021/09/05 02:43:36;;;;;;;4.27;3.90;;;;;;;;;;5049383;28;20196;-85
2021/09/05 02:46:02;;;;;;;4.00;3.60;;;;;;;;;;5046968;28;20441;-87
2021/09/05 02:48:28;;;;;;;4.43;4.03;;;;;;;;;;5047166;28;20425;-87
2021/09/05 02:50:54;;;;;;;5.77;3.80;;;;;;;;;;5061783;28;20205;-86
2021/09/05 02:53:20;;;;;;;4.57;4.03;;;;;;;;;;5042315;28;20472;-87
2021/09/05 02:55:46;;;;;;;4.33;3.93;;;;;;;;;;5043676;28;20476;-87
2021/09/05 02:58:12;;;;;;;5.72;3.58;;;;;;;;;;5045499;28;20451;-86
2021/09/05 03:00:38;;;;;;;4.55;3.67;;;;;;;;;;5059132;28;20187;-87
2021/09/05 03:03:04;;;;;;;5.67;4.30;;;;;;;;;;5045457;28;20264;-87
2021/09/05 03:05:30;;;;;;;5.25;3.70;;;;;;;;;;5048581;28;20583;-86
2021/09/05 03:07:56;;;;;;;6.10;3.93;;;;;;;;;;5053225;28;20606;-87
2021/09/05 03:10:22;;;;;;;4.40;3.97;;;;;;;;;;5058418;28;20441;-86
2021/09/05 03:12:48;;;;;;;6.90;4.05;;;;;;;;;;5044133;28;20476;-86
2021/09/05 03:15:14;;;;;;;7.30;4.17;;;;;;;;;;5049747;28;20189;-85
2021/09/05 03:17:40;;;;;;;3.73;3.20;;;;;;;;;;5048898;28;20417;-86
2021/09/05 03:20:07;;;;;;;4.97;3.60;;;;;;;;;;5048931;28;20468;-87
2021/09/05 03:22:33;;;;;;;3.53;3.22;;;;;;;;;;5047574;28;20277;-87
2021/09/05 03:24:59;;;;;;;4.23;3.43;;;;;;;;;;5046821;28;20657;-86
2021/09/05 03:27:24;;;;;;;4.30;3.90;;;;;;;;;;5046407;28;20429;-86
2021/09/05 03:29:50;;;;;;;6.00;3.80;;;;;;;;;;5051193;28;20428;-87
2021/09/05 03:32:31;;;;;;;9.30;4.07;;;;;;;;;;5087541;27;2025954;-87
2021/09/05 03:34:57;;;;;;;5.28;3.40;;;;;;;;;;5125257;28;20182;-86
2021/09/05 03:37:23;;;;;;;4.00;3.67;;;;;;;;;;5110074;28;20542;-85
2021/09/05 03:39:49;;;;;;;4.83;3.33;;;;;;;;;;5123391;28;20433;-86
2021/09/05 03:42:15;;;;;;;6.20;3.23;;;;;;;;;;5142098;28;20467;-86
2021/09/05 03:44:41;;;;;;;7.25;4.20;;;;;;;;;;5114106;28;20421;-86
2021/09/05 03:47:07;;;;;;;5.00;4.47;;;;;;;;;;5104502;28;20217;-86
2021/09/05 03:49:33;;;;;;;4.63;4.10;;;;;;;;;;5111811;28;20269;-86
2021/09/05 03:51:59;;;;;;;4.90;3.80;;;;;;;;;;5107758;28;20199;-86
2021/09/05 03:54:25;;;;;;;7.60;3.88;;;;;;;;;;5106083;28;20262;-86
2021/09/05 03:56:51;;;;;;;7.53;3.90;;;;;;;;;;5119257;28;20176;-86
2021/09/05 03:59:17;;;;;;;4.70;3.90;;;;;;;;;;5112284;28;20454;-86
2021/09/05 04:01:43;;;;;;;4.55;3.70;;;;;;;;;;5126694;28;20685;-85
2021/09/05 04:04:09;;;;;;;7.68;4.05;;;;;;;;;;5118058;28;20186;-85
2021/09/05 04:06:35;;;;;;;7.03;4.07;;;;;;;;;;5122482;28;20188;-85
2021/09/05 04:09:09;;;;;;;5.55;4.25;;;;;;;;;;5118152;28;20501;-86
2021/09/05 04:11:35;;;;;;;4.97;4.45;;;;;;;;;;5109198;28;20208;-85
2021/09/05 04:14:01;;;;;;;5.95;3.78;;;;;;;;;;5105811;28;20194;-86
2021/09/05 04:16:27;;;;;;;6.50;4.40;;;;;;;;;;5107063;28;20171;-85
2021/09/05 04:18:53;;;;;;;4.15;3.60;;;;;;;;;;5106827;28;20439;-86
2021/09/05 04:21:19;;;;;;;5.30;3.40;;;;;;;;;;5102956;28;20187;-86
2021/09/05 04:23:45;;;;;;;5.40;3.65;;;;;;;;;;5117678;28;20416;-86
2021/09/05 04:26:11;;;;;;;5.87;4.13;;;;;;;;;;5112636;28;20562;-84
2021/09/05 04:28:37;;;;;;;5.73;4.77;;;;;;;;;;5108095;28;20437;-85
2021/09/05 04:31:03;;;;;;;7.72;4.45;;;;;;;;;;5115063;28;20477;-86
2021/09/05 04:33:29;;;;;;;4.57;4.17;;;;;;;;;;5115661;28;20167;-86
2021/09/05 04:35:55;;;;;;;4.80;4.17;;;;;;;;;;5104138;28;20418;-86
2021/09/05 04:38:21;;;;;;;4.97;4.27;;;;;;;;;;5107233;28;20840;-86
2021/09/05 04:40:47;;;;;;;4.38;3.83;;;;;;;;;;5106755;28;20437;-86
2021/09/05 04:43:13;;;;;;;5.03;4.23;;;;;;;;;;5107926;28;20176;-86
2021/09/05 04:45:39;;;;;;;7.80;4.20;;;;;;;;;;5088366;28;20441;-86
2021/09/05 04:48:05;;;;;;;6.10;4.05;;;;;;;;;;5101569;28;20210;-85
2021/09/05 04:50:31;;;;;;;8.25;5.13;;;;;;;;;;5089809;28;20209;-86
2021/09/05 04:52:57;;;;;;;6.33;4.60;;;;;;;;;;5099742;28;20231;-86
2021/09/05 04:55:23;;;;;;;6.45;4.68;;;;;;;;;;5089497;28;20442;-85
2021/09/05 04:57:49;;;;;;;5.57;4.32;;;;;;;;;;5102260;28;20225;-85
2021/09/05 05:00:15;;;;;;;6.77;4.50;;;;;;;;;;5090089;28;20169;-85
2021/09/05 05:02:41;;;;;;;6.57;4.10;;;;;;;;;;5101139;28;20869;-86
2021/09/05 05:05:07;;;;;;;7.93;4.70;;;;;;;;;;5097780;28;20206;-86
2021/09/05 05:07:34;;;;;;;7.82;4.32;;;;;;;;;;5093179;28;20485;-85
2021/09/05 05:10:00;;;;;;;5.70;4.15;;;;;;;;;;5086885;28;20185;-86
2021/09/05 05:12:25;;;;;;;8.87;4.50;;;;;;;;;;5102939;28;20329;-85
2021/09/05 05:14:51;;;;;;;7.50;4.30;;;;;;;;;;5098046;28;20541;-85
2021/09/05 05:17:17;;;;;;;5.90;4.37;;;;;;;;;;5095743;28;20433;-86
2021/09/05 05:19:43;;;;;;;5.43;4.20;;;;;;;;;;5088294;28;20453;-86
2021/09/05 05:22:09;;;;;;;6.47;4.72;;;;;;;;;;5101202;28;20438;-85
2021/09/05 05:24:35;;;;;;;5.15;4.65;;;;;;;;;;5103121;28;20218;-85
2021/09/05 05:27:01;;;;;;;5.27;4.60;;;;;;;;;;5090529;28;20321;-86
2021/09/05 05:29:27;;;;;;;7.83;4.90;;;;;;;;;;5088013;28;20446;-86
2021/09/05 05:31:54;;;;;;;6.45;5.18;;;;;;;;;;5098669;28;20474;-85
2021/09/05 05:34:20;;;;;;;7.47;5.05;;;;;;;;;;5088433;28;20234;-86
2021/09/05 05:36:46;;;;;;;8.15;4.30;;;;;;;;;;5102014;28;20270;-86
2021/09/05 05:39:12;;;;;;;7.95;4.88;;;;;;;;;;5089742;28;20192;-86
2021/09/05 05:41:38;;;;;;;11.00;5.20;;;;;;;;;;5091964;28;20553;-85
2021/09/05 05:44:04;;;;;;;8.60;5.28;;;;;;;;;;5089904;28;20232;-85
2021/09/05 05:46:30;;;;;;;6.50;5.20;;;;;;;;;;5090088;28;20210;-86
2021/09/05 05:48:56;;;;;;;8.13;4.60;;;;;;;;;;5102098;28;20184;-85
2021/09/05 05:51:22;;;;;;;10.27;6.30;;;;;;;;;;5102116;28;20459;-85
2021/09/05 05:53:48;;;;;;;9.25;5.68;;;;;;;;;;5085702;28;20412;-85
2021/09/05 05:56:14;;;;;;;8.33;5.67;;;;;;;;;;5098575;28;20512;-85
2021/09/05 05:58:40;;;;;;;7.90;5.17;;;;;;;;;;5099900;28;20434;-85
2021/09/05 06:01:06;;;;;;;8.00;5.70;;;;;;;;;;5087254;28;20459;-86
2021/09/05 06:03:32;;;;;;;6.50;5.27;;;;;;;;;;5085795;28;20421;-86
2021/09/05 06:05:58;;;;;;;7.10;6.00;;;;;;;;;;5100281;28;20423;-86
2021/09/05 06:08:24;;;;;;;8.30;5.87;;;;;;;;;;5094619;28;20635;-85
2021/09/05 06:10:49;;;;;;;10.43;6.50;;;;;;;;;;5091248;28;20462;-85
2021/09/05 06:13:15;;;;;;;7.40;6.17;;;;;;;;;;5103228;28;20478;-86
2021/09/05 06:15:41;;;;;;;10.03;6.37;;;;;;;;;;5084585;28;20438;-86
2021/09/05 06:18:08;;;;;;;11.10;6.07;;;;;;;;;;5088498;28;20407;-85
2021/09/05 06:20:33;;;;;;;12.60;6.30;;;;;;;;;;5091680;28;20957;-86
2021/09/05 06:22:59;;;;;;;9.98;6.53;;;;;;;;;;5092177;28;20511;-85
2021/09/05 06:25:25;;;;;;;12.67;6.40;;;;;;;;;;5092109;28;20210;-85
2021/09/05 06:27:51;;;;;;;10.95;6.80;;;;;;;;;;5087570;28;20435;-85
2021/09/05 06:30:17;;;;;;;8.10;6.03;;;;;;;;;;5099579;28;20219;-87
2021/09/05 06:32:43;;;;;;;13.37;7.00;;;;;;;;;;5107507;28;20803;-86
2021/09/05 06:35:09;;;;;;;14.57;7.93;;;;;;;;;;5094232;28;20469;-86
2021/09/05 06:37:35;;;;;;;14.93;7.57;;;;;;;;;;5094968;28;20450;-86
2021/09/05 06:40:01;;;;;;;17.70;7.57;;;;;;;;;;5090809;28;20467;-85
2021/09/05 06:42:27;;;;;;;12.67;8.00;;;;;;;;;;5108070;28;20449;-84
2021/09/05 06:44:53;;;;;;;15.02;7.85;;;;;;;;;;5099715;28;20426;-86
2021/09/05 06:47:20;;;;;;;10.90;7.87;;;;;;;;;;5095396;28;20189;-86
2021/09/05 06:49:46;;;;;;;16.05;8.52;;;;;;;;;;5090298;28;20483;-86
2021/09/05 06:52:12;;;;;;;17.17;8.27;;;;;;;;;;5089304;28;21249;-86
2021/09/05 06:54:38;;;;;;;14.95;8.70;;;;;;;;;;5105213;28;20519;-85
2021/09/05 06:57:06;;;;;;;17.00;8.48;;;;;;;;;;5101558;28;20199;-85
2021/09/05 06:59:34;;;;;;;17.27;8.35;;;;;;;;;;5093968;28;20196;-86
2021/09/05 07:02:01;;;;;;;15.35;9.65;;;;;;;;;;5100423;28;20189;-86
2021/09/05 07:04:27;;;;;;;16.38;8.63;;;;;;;;;;5101879;28;20215;-86
2021/09/05 07:06:53;;;;;;;14.30;8.70;;;;;;;;;;5089256;28;20208;-86
2021/09/05 07:09:19;;;;;;;14.32;9.15;;;;;;;;;;5088303;28;20423;-85
2021/09/05 07:11:45;;;;;;;12.87;9.90;;;;;;;;;;5103489;28;20738;-86
2021/09/05 07:14:24;;;;;;;13.67;9.03;;;;;;;;;;5090838;28;20435;-86
2021/09/05 07:16:55;;;;;;;15.85;10.55;;;;;;;;;;5085863;28;20760;-86
2021/09/05 07:19:21;;;;;;;15.90;11.93;;;;;;;;;;5093807;28;20184;-86
2021/09/05 07:21:52;;;;;;;13.50;11.05;;;;;;;;;;5088993;28;20318;-87
2021/09/05 07:24:18;;;;;;;16.25;12.10;;;;;;;;;;5088687;28;20269;-86
2021/09/05 07:26:44;;;;;;;14.37;11.13;;;;;;;;;;5099602;28;20195;-86
2021/09/05 07:29:10;;;;;;;14.85;11.85;;;;;;;;;;5096752;28;20469;-86
2021/09/05 07:31:36;;;;;;;16.60;12.17;;;;;;;;;;5109216;28;20228;-85
2021/09/05 07:34:02;;;;;;;19.52;13.10;;;;;;;;;;5090681;28;20432;-86
2021/09/05 07:36:28;;;;;;;18.67;13.13;;;;;;;;;;5088904;28;20169;-86
2021/09/05 07:38:54;;;;;;;18.17;11.95;;;;;;;;;;5117393;28;20169;-85
2021/09/05 07:41:20;;;;;;;13.63;12.00;;;;;;;;;;5112067;28;20185;-85
2021/09/05 07:43:46;;;;;;;15.35;13.25;;;;;;;;;;5093428;28;20431;-86
2021/09/05 07:46:12;;;;;;;16.83;12.30;;;;;;;;;;5105694;28;20194;-86
2021/09/05 07:48:38;;;;;;;15.57;12.60;;;;;;;;;;5103049;28;20442;-84
2021/09/05 07:51:04;;;;;;;18.57;12.20;;;;;;;;;;5100431;28;20454;-85
2021/09/05 07:53:30;;;;;;;16.97;11.90;;;;;;;;;;5094589;28;20423;-85
2021/09/05 07:55:56;;;;;;;14.97;11.80;;;;;;;;;;5111831;28;20395;-86
2021/09/05 07:58:24;;;;;;;15.80;11.70;;;;;;;;;;5100214;28;20462;-85
2021/09/05 08:00:50;;;;;;;20.90;13.32;;;;;;;;;;5102678;28;20412;-86
2021/09/05 08:03:16;;;;;;;18.40;12.73;;;;;;;;;;5105642;28;20175;-85
2021/09/05 08:05:42;;;;;;;20.90;13.70;;;;;;;;;;5118315;28;20406;-86
2021/09/05 08:08:08;;;;;;;15.83;13.63;;;;;;;;;;5104411;28;20433;-85
2021/09/05 08:10:34;;;;;;;16.87;12.90;;;;;;;;;;5120330;28;20471;-86
2021/09/05 08:13:00;;;;;;;17.87;13.27;;;;;;;;;;5103483;28;20415;-85
2021/09/05 08:15:26;;;;;;;17.10;14.63;;;;;;;;;;5105070;28;20446;-85
2021/09/05 08:17:52;;;;;;;15.87;13.77;;;;;;;;;;5102915;28;20382;-86
2021/09/05 08:20:18;;;;;;;18.05;14.35;;;;;;;;;;5116128;28;20453;-86
2021/09/05 08:22:46;;;;;;;18.57;15.07;;;;;;;;;;5096662;28;20182;-85
2021/09/05 08:25:12;;;;;;;14.70;13.30;;;;;;;;;;5111472;28;20395;-85
2021/09/05 08:27:38;;;;;;;16.67;14.30;;;;;;;;;;5106951;28;20461;-85
2021/09/05 08:30:05;;;;;;;20.70;15.27;;;;;;;;;;5105280;28;20412;-84
2021/09/05 08:32:31;;;;;;;18.70;14.53;;;;;;;;;;5108292;28;20457;-85
2021/09/05 08:34:57;;;;;;;16.43;14.70;;;;;;;;;;5103557;28;20428;-86
2021/09/05 08:37:23;;;;;;;18.17;16.00;;;;;;;;;;5092726;28;20430;-85
2021/09/05 08:39:50;;;;;;;18.43;15.23;;;;;;;;;;5106053;28;20516;-85
2021/09/05 08:42:16;;;;;;;17.50;14.20;;;;;;;;;;5110827;28;20418;-85
2021/09/05 08:44:43;;;;;;;22.50;15.00;;;;;;;;;;5100815;28;20430;-84
2021/09/05 08:47:09;;;;;;;23.33;15.67;;;;;;;;;;5100313;28;20412;-84
2021/09/05 08:49:37;;;;;;;20.70;15.27;;;;;;;;;;5091450;28;20621;-83
2021/09/05 08:52:06;;;;;;;18.53;16.30;;;;;;;;;;5105071;28;20427;-84
2021/09/05 08:54:32;;;;;;;19.00;14.60;;;;;;;;;;5124084;28;20434;-85
2021/09/05 08:57:00;;;;;;;17.48;15.70;;;;;;;;;;5102239;28;20459;-84
2021/09/05 08:59:26;;;;;;;18.97;14.50;;;;;;;;;;5097684;28;20183;-85
2021/09/05 09:02:00;;;;;;;15.87;13.77;;;;;;;;;;5111407;28;20423;-84
2021/09/05 09:04:26;;;;;;;16.93;13.93;;;;;;;;;;5120802;28;20425;-84
2021/09/05 09:06:52;;;;;;;19.95;14.27;;;;;;;;;;5089992;28;20480;-85
2021/09/05 09:09:18;;;;;;;16.40;14.70;;;;;;;;;;5091883;28;20562;-84
2021/09/05 09:11:50;;;;;;;21.10;14.90;;;;;;;;;;5103508;28;20431;-84
2021/09/05 09:14:17;;;;;;;20.83;16.97;;;;;;;;;;5114153;28;20426;-84
2021/09/05 09:16:43;;;;;;;17.20;14.10;;;;;;;;;;5111490;28;20407;-84
2021/09/05 09:19:21;;;;;;;16.43;13.27;;;;;;;;;;5106702;28;20425;-83
2021/09/05 09:21:47;;;;;;;15.90;13.97;;;;;;;;;;5089116;28;20497;-83
2021/09/05 09:24:19;;;;;;;17.97;13.53;;;;;;;;;;5103783;28;20792;-83
2021/09/05 09:27:06;;;;;;;15.73;13.63;;;;;;;;;;5111255;28;20417;-83
2021/09/05 09:29:34;;;;;;;15.77;14.17;;;;;;;;;;5101081;28;20418;-84
2021/09/05 09:32:08;;;;;;;15.10;13.70;;;;;;;;;;5100217;28;20459;-83
2021/09/05 09:34:38;;;;;;;15.47;13.87;;;;;;;;;;5092278;28;20452;-84
2021/09/05 09:37:10;;;;;;;18.10;14.10;;;;;;;;;;5122082;28;20408;-83
2021/09/05 09:39:42;;;;;;;15.50;13.40;;;;;;;;;;5090001;28;20412;-84
2021/09/05 09:42:08;;;;;;;15.60;13.93;;;;;;;;;;5110167;28;20417;-84
2021/09/05 09:44:34;;;;;;;17.87;16.07;;;;;;;;;;5117914;28;20423;-83
2021/09/05 09:47:09;;;;;;;16.43;14.73;;;;;;;;;;5101652;28;20428;-83
2021/09/05 09:49:49;;;;;;;18.87;15.70;;;;;;;;;;5103514;28;20436;-84
2021/09/05 09:52:16;;;;;;;17.90;14.70;;;;;;;;;;5090505;28;20766;-84
2021/09/05 09:54:43;;;;;;;16.47;14.80;;;;;;;;;;5104993;28;20440;-85
2021/09/05 09:57:09;;;;;;;15.80;14.23;;;;;;;;;;5103286;28;20409;-84
2021/09/05 09:59:35;;;;;;;14.03;12.57;;;;;;;;;;5117168;28;20422;-84
2021/09/05 10:02:01;;;;;;;16.23;13.27;;;;;;;;;;5100574;28;21016;-84
2021/09/05 10:04:31;;;;;;;14.17;12.77;;;;;;;;;;5094849;28;20445;-85
2021/09/05 10:06:57;;;;;;;14.47;13.07;;;;;;;;;;5107892;28;20443;-84
2021/09/05 10:09:25;;;;;;;15.13;13.63;;;;;;;;;;5089739;28;20428;-83
2021/09/05 10:11:51;;;;;;;17.70;15.50;;;;;;;;;;5104939;28;20969;-84
2021/09/05 10:14:18;;;;;;;16.83;15.13;;;;;;;;;;5118385;28;20392;-85
2021/09/05 10:16:44;;;;;;;16.83;15.10;;;;;;;;;;5100769;28;20921;-84
2021/09/05 10:19:10;;;;;;;18.40;16.33;;;;;;;;;;5106488;28;20399;-84
2021/09/05 10:21:37;;;;;;;15.87;14.27;;;;;;;;;;5087998;28;20435;-84
2021/09/05 10:24:03;;;;;;;16.37;14.47;;;;;;;;;;5103084;28;20428;-84
2021/09/05 10:26:29;;;;;;;13.50;12.37;;;;;;;;;;5111668;28;20490;-83
2021/09/05 10:28:56;;;;;;;15.23;13.80;;;;;;;;;;5094364;28;20416;-84
2021/09/05 10:31:26;;;;;;;14.53;13.13;;;;;;;;;;5093518;28;20467;-83
2021/09/05 10:33:53;;;;;;;14.27;12.80;;;;;;;;;;5107243;28;20438;-84
2021/09/05 10:36:19;;;;;;;14.50;13.10;;;;;;;;;;5121607;28;20390;-84
2021/09/05 10:38:46;;;;;;;16.27;14.60;;;;;;;;;;5110255;28;20406;-84
2021/09/05 10:41:15;;;;;;;16.67;14.97;;;;;;;;;;5093428;28;20414;-83
2021/09/05 10:43:51;;;;;;;14.30;12.80;;;;;;;;;;5110407;28;20427;-84
2021/09/05 10:46:18;;;;;;;13.40;12.23;;;;;;;;;;5104553;28;20436;-84
2021/09/05 10:48:49;;;;;;;15.63;12.27;;;;;;;;;;5103557;28;20425;-84
2021/09/05 10:51:16;;;;;;;13.70;12.20;;;;;;;;;;5103494;28;20434;-85
2021/09/05 10:53:50;;;;;;;13.50;12.10;;;;;;;;;;5107062;28;20413;-85
2021/09/05 10:56:20;;;;;;;12.63;11.20;;;;;;;;;;5097200;28;20429;-84
2021/09/05 10:58:48;;;;;;;12.10;10.90;;;;;;;;;;5101450;28;20409;-85
2021/09/05 11:01:21;;;;;;;10.60;9.60;;;;;;;;;;5092779;28;20532;-85
2021/09/05 11:04:07;;;;;;;10.47;9.40;;;;;;;;;;5087987;28;21008;-84
2021/09/05 11:06:46;;;;;;;9.70;8.70;;;;;;;;;;5073931;28;20446;-84
2021/09/05 11:09:22;;;;;;;9.67;8.87;;;;;;;;;;5102368;28;20398;-84
2021/09/05 11:11:57;;;;;;;9.50;8.70;;;;;;;;;;5100768;28;20480;-84
2021/09/05 11:14:56;;;;;;;9.50;8.60;;;;;;;;;;5099693;28;20492;-83
2021/09/05 11:17:29;;;;;;;11.40;10.30;;;;;;;;;;5111253;28;20414;-84
2021/09/05 11:20:03;;;;;;;10.97;9.97;;;;;;;;;;5108959;28;21033;-82
2021/09/05 11:22:29;;;;;;;11.53;10.43;;;;;;;;;;5107753;28;20415;-84
2021/09/05 11:25:11;;;;;;;8.77;8.00;;;;;;;;;;5120577;28;20500;-84
2021/09/05 11:27:37;;;;;;;9.00;8.20;;;;;;;;;;5086465;28;20429;-84
2021/09/05 11:30:05;;;;;;;9.57;8.77;;;;;;;;;;5101210;28;20500;-84
2021/09/05 11:32:32;;;;;;;9.67;8.57;;;;;;;;;;5091561;28;20492;-85
2021/09/05 11:34:58;;;;;;;8.27;7.57;;;;;;;;;;5093480;28;20461;-82
2021/09/05 11:37:31;;;;;;;8.43;7.63;;;;;;;;;;5093123;28;20497;-84
2021/09/05 11:40:03;;;;;;;9.47;8.00;;;;;;;;;;5089050;28;20424;-84
2021/09/05 11:42:31;;;;;;;8.37;7.63;;;;;;;;;;5088365;28;20458;-84
2021/09/05 11:45:01;;;;;;;8.50;7.70;;;;;;;;;;5119079;28;20445;-85
2021/09/05 11:47:27;;;;;;;12.77;8.00;;;;;;;;;;5110427;28;20433;-85
2021/09/05 11:49:54;;;;;;;9.27;8.40;;;;;;;;;;5088962;28;20522;-85
2021/09/05 11:52:21;;;;;;;9.00;8.30;;;;;;;;;;5088685;28;20500;-84
2021/09/05 11:54:48;;;;;;;7.90;7.20;;;;;;;;;;5107646;28;20485;-84
2021/09/05 11:57:14;;;;;;;11.77;10.67;;;;;;;;;;5112276;28;20440;-83
2021/09/05 11:59:40;;;;;;;8.93;8.10;;;;;;;;;;5103784;28;20447;-86
2021/09/05 12:02:07;;;;;;;8.03;7.33;;;;;;;;;;5103531;28;20466;-84
2021/09/05 12:04:35;;;;;;;9.10;8.30;;;;;;;;;;5104462;28;20446;-84
2021/09/05 12:07:01;;;;;;;8.00;7.40;;;;;;;;;;5110528;28;20479;-85
2021/09/05 12:09:28;;;;;;;10.10;9.20;;;;;;;;;;5110422;28;20884;-84
2021/09/05 12:11:57;;;;;;;7.40;6.80;;;;;;;;;;5112483;28;20461;-83
2021/09/05 12:14:27;;;;;;;9.40;8.63;;;;;;;;;;5117919;28;20431;-83
2021/09/05 12:16:53;;;;;;;12.07;10.93;;;;;;;;;;5097767;28;20433;-83
2021/09/05 12:19:19;;;;;;;8.80;8.00;;;;;;;;;;5095084;28;20437;-83
2021/09/05 12:21:45;;;;;;;9.63;8.80;;;;;;;;;;5089987;28;20429;-81
2021/09/05 12:24:18;;;;;;;8.93;8.10;;;;;;;;;;5112037;28;20420;-81
2021/09/05 12:26:45;;;;;;;9.83;8.23;;;;;;;;;;5102869;28;20427;-82
2021/09/05 12:29:12;;;;;;;8.07;7.37;;;;;;;;;;5101828;28;20432;-82
2021/09/05 12:31:45;;;;;;;8.53;7.63;;;;;;;;;;5102606;28;20468;-82
2021/09/05 12:34:12;;;;;;;7.97;7.37;;;;;;;;;;5092796;28;20492;-82
2021/09/05 12:36:38;;;;;;;8.40;7.60;;;;;;;;;;5105905;28;20452;-82
2021/09/05 12:39:04;;;;;;;9.17;8.47;;;;;;;;;;5103791;28;20444;-82
2021/09/05 12:41:31;;;;;;;9.80;8.90;;;;;;;;;;5113463;28;20718;-82
2021/09/05 12:43:58;;;;;;;8.13;7.53;;;;;;;;;;5111276;28;20497;-82
2021/09/05 12:46:44;;;;;;;7.90;7.20;;;;;;;;;;5095771;28;20545;-83
2021/09/05 12:49:16;;;;;;;8.57;7.30;;;;;;;;;;5092923;28;20492;-82
2021/09/05 12:51:50;;;;;;;7.60;7.00;;;;;;;;;;5089290;28;20548;-82
2021/09/05 12:54:16;;;;;;;7.50;6.87;;;;;;;;;;5105143;28;20436;-82
2021/09/05 12:56:42;;;;;;;7.50;6.90;;;;;;;;;;5120721;28;20477;-82
2021/09/05 12:59:08;;;;;;;7.90;7.20;;;;;;;;;;5094685;28;20429;-82
2021/09/05 13:01:35;;;;;;;7.67;7.03;;;;;;;;;;5112788;28;20497;-82
2021/09/05 13:04:02;;;;;;;8.87;8.07;;;;;;;;;;5091263;28;20471;-82
2021/09/05 13:06:28;;;;;;;8.00;7.37;;;;;;;;;;5091228;28;20428;-82
2021/09/05 13:08:55;;;;;;;7.80;7.20;;;;;;;;;;5092761;28;20429;-82
2021/09/05 13:11:22;;;;;;;9.40;8.60;;;;;;;;;;5116561;28;20491;-83
2021/09/05 13:13:48;;;;;;;8.17;7.47;;;;;;;;;;5097479;28;20430;-82
2021/09/05 13:16:15;;;;;;;7.30;6.37;;;;;;;;;;5092570;28;20436;-84
2021/09/05 13:18:43;;;;;;;6.30;5.80;;;;;;;;;;5089702;28;20424;-83
2021/09/05 13:21:10;;;;;;;8.23;7.20;;;;;;;;;;5122584;28;20440;-83
2021/09/05 13:23:37;;;;;;;7.40;6.80;;;;;;;;;;5119850;28;20508;-83
2021/09/05 13:26:03;;;;;;;7.87;7.27;;;;;;;;;;5118578;28;20440;-83
2021/09/05 13:28:29;;;;;;;7.03;6.43;;;;;;;;;;5103950;28;20441;-83
2021/09/05 13:30:55;;;;;;;6.87;6.33;;;;;;;;;;5107405;28;20473;-83
2021/09/05 13:33:21;;;;;;;6.40;5.90;;;;;;;;;;5087438;28;20445;-84
2021/09/05 13:35:47;;;;;;;6.17;5.77;;;;;;;;;;5101406;28;20466;-84
2021/09/05 13:38:13;;;;;;;6.00;5.60;;;;;;;;;;5101075;28;20548;-84
2021/09/05 13:40:39;;;;;;;6.00;5.50;;;;;;;;;;5118347;28;22515;-85
2021/09/05 13:43:05;;;;;;;5.63;5.27;;;;;;;;;;5091072;28;20458;-85
2021/09/05 13:45:31;;;;;;;5.87;5.37;;;;;;;;;;5122603;28;20446;-84
2021/09/05 13:47:57;;;;;;;6.83;6.23;;;;;;;;;;5110755;28;20418;-85
2021/09/05 13:50:23;;;;;;;5.57;5.07;;;;;;;;;;5090734;28;20425;-84
2021/09/05 13:52:49;;;;;;;6.53;6.03;;;;;;;;;;5093080;28;20433;-84
2021/09/05 13:55:15;;;;;;;5.07;4.67;;;;;;;;;;5094180;28;20433;-85
2021/09/05 13:57:41;;;;;;;4.80;4.50;;;;;;;;;;5123249;28;20501;-84
2021/09/05 14:00:07;;;;;;;6.37;5.87;;;;;;;;;;5120317;28;20417;-84
2021/09/05 14:02:33;;;;;;;4.90;4.57;;;;;;;;;;5093697;28;20448;-84
2021/09/05 14:04:59;;;;;;;5.13;4.73;;;;;;;;;;5110986;28;20525;-84
2021/09/05 14:07:25;;;;;;;5.50;5.10;;;;;;;;;;5094719;28;20494;-83
2021/09/05 14:09:51;;;;;;;5.60;5.20;;;;;;;;;;5088216;28;20826;-83
2021/09/05 14:12:17;;;;;;;5.40;5.00;;;;;;;;;;5090588;28;20456;-83
2021/09/05 14:14:43;;;;;;;4.70;4.30;;;;;;;;;;5109766;28;20433;-83
2021/09/05 14:17:10;;;;;;;6.07;5.13;;;;;;;;;;5089756;28;20418;-83
2021/09/05 14:19:37;;;;;;;5.50;5.00;;;;;;;;;;5110057;28;20569;-84
2021/09/05 14:22:04;;;;;;;4.90;4.30;;;;;;;;;;5107207;28;20485;-82
2021/09/05 14:24:30;;;;;;;5.20;4.80;;;;;;;;;;5121297;28;20440;-82
2021/09/05 14:27:01;;;;;;;5.87;5.37;;;;;;;;;;5103196;28;20944;-83
2021/09/05 14:29:36;;;;;;;4.90;4.60;;;;;;;;;;5117522;28;20437;-82
2021/09/05 14:32:17;;;;;;;5.30;4.83;;;;;;;;;;5114875;28;20464;-83
2021/09/05 14:34:51;;;;;;;4.87;4.37;;;;;;;;;;5090164;28;20498;-82
2021/09/05 14:48:17;;;;;;;4.60;4.30;;;;;;;;;;5120359;28;20424;-84